createdAt,value
2022-08-23T00:00:10.449Z,1.25
2022-08-23T00:02:41.588Z,1.40
2022-08-23T00:05:11.741Z,1.20
2022-08-23T00:07:43.635Z,1.20
2022-08-23T00:10:15.666Z,1.45
2022-08-23T00:12:44.850Z,1.25
2022-08-23T00:15:15.523Z,1.27
2022-08-23T00:17:43.798Z,1.10
2022-08-23T00:20:15.366Z,1.30
2022-08-23T00:22:44.872Z,1.40
2022-08-23T00:25:15.363Z,1.50
2022-08-23T00:27:43.547Z,1.10
2022-08-23T00:30:13.613Z,1.15
2022-08-23T00:32:42.551Z,1.17
2022-08-23T00:35:12.813Z,1.63
2022-08-23T00:38:31.980Z,1.50
2022-08-23T00:40:41.403Z,1.20
2022-08-23T00:43:30.827Z,1.20
2022-08-23T00:46:22.151Z,1.20
2022-08-23T00:48:50.385Z,1.30
2022-08-23T00:51:24.674Z,1.42
2022-08-23T00:53:59.268Z,1.30
2022-08-23T00:56:30.607Z,1.33
2022-08-23T00:59:00.099Z,1.35
2022-08-23T01:01:28.650Z,1.10
2022-08-23T01:04:04.806Z,1.30
2022-08-23T01:06:38.904Z,1.20
2022-08-23T01:09:13.136Z,1.20
2022-08-23T01:11:45.074Z,1.20
2022-08-23T01:14:18.764Z,1.23
2022-08-23T01:16:51.828Z,1.08
2022-08-23T01:19:28.190Z,1.30
2022-08-23T01:22:06.113Z,1.40
2022-08-23T01:24:59.936Z,1.20
2022-08-23T01:27:26.746Z,1.20
2022-08-23T01:29:55.401Z,1.30
2022-08-23T01:32:23.681Z,1.20
2022-08-23T01:34:52.000Z,1.23
2022-08-23T01:37:22.120Z,1.23
2022-08-23T01:39:52.825Z,1.27
2022-08-23T01:42:20.933Z,1.25
2022-08-23T01:44:49.065Z,1.20
2022-08-23T01:47:17.449Z,1.02
2022-08-23T01:49:45.518Z,1.40
2022-08-23T01:52:15.365Z,1.50
2022-08-23T01:54:43.450Z,1.30
2022-08-23T01:57:13.212Z,1.30
2022-08-23T01:59:41.370Z,1.20
2022-08-23T02:02:09.447Z,1.00
2022-08-23T02:04:37.573Z,0.97
2022-08-23T02:07:05.963Z,1.23
2022-08-23T02:09:34.432Z,1.27
2022-08-23T02:12:02.851Z,1.50
2022-08-23T02:14:32.995Z,1.20
2022-08-23T02:17:03.509Z,1.17
2022-08-23T02:19:33.145Z,1.10
2022-08-23T02:22:01.581Z,1.25
2022-08-23T02:24:31.284Z,1.10
2022-08-23T02:27:01.936Z,1.38
2022-08-23T02:29:31.849Z,1.20
2022-08-23T02:32:01.466Z,1.50
2022-08-23T02:34:30.632Z,1.60
2022-08-23T02:36:59.053Z,1.70
2022-08-23T02:39:27.746Z,1.50
2022-08-23T02:41:56.445Z,1.37
2022-08-23T02:44:25.511Z,1.27
2022-08-23T02:46:55.232Z,1.53
2022-08-23T02:49:23.627Z,1.30
2022-08-23T02:51:51.973Z,1.60
2022-08-23T02:54:20.643Z,1.60
2022-08-23T02:56:49.051Z,1.40
2022-08-23T02:59:17.413Z,1.30
2022-08-23T03:01:46.490Z,1.30
2022-08-23T03:04:16.266Z,1.40
2022-08-23T03:06:44.903Z,1.30
2022-08-23T03:09:13.647Z,1.27
2022-08-23T03:11:45.507Z,1.20
2022-08-23T03:14:14.103Z,1.30
2022-08-23T03:16:42.435Z,1.40
2022-08-23T03:19:10.831Z,1.30
2022-08-23T03:21:40.575Z,1.60
2022-08-23T03:24:11.751Z,1.50
2022-08-23T03:26:40.276Z,1.40
2022-08-23T03:29:08.662Z,1.30
2022-08-23T03:31:37.031Z,1.30
2022-08-23T03:34:05.885Z,1.40
2022-08-23T03:36:34.439Z,1.50
2022-08-23T03:39:04.249Z,1.48
2022-08-23T03:41:32.827Z,1.30
2022-08-23T03:44:01.207Z,1.00
2022-08-23T03:46:33.454Z,1.30
2022-08-23T03:49:03.480Z,1.23
2022-08-23T03:51:32.406Z,1.40
2022-08-23T03:54:00.825Z,1.63
2022-08-23T03:56:31.777Z,1.40
2022-08-23T03:59:01.033Z,1.20
2022-08-23T04:01:29.494Z,1.17
2022-08-23T04:03:59.880Z,1.20
2022-08-23T04:06:28.825Z,1.20
2022-08-23T04:08:57.539Z,1.40
2022-08-23T04:11:26.207Z,1.10
2022-08-23T04:13:56.107Z,1.07
2022-08-23T04:16:24.509Z,1.37
2022-08-23T04:18:52.906Z,1.27
2022-08-23T04:21:23.004Z,1.30
2022-08-23T04:23:51.536Z,1.80
2022-08-23T04:26:20.935Z,1.40
2022-08-23T04:28:49.317Z,1.40
2022-08-23T04:31:19.912Z,1.40
2022-08-23T04:33:52.289Z,1.50
2022-08-23T04:36:23.317Z,1.20
2022-08-23T04:38:52.177Z,1.50
2022-08-23T04:41:38.673Z,2.50
2022-08-23T04:44:07.119Z,1.90
2022-08-23T04:46:36.922Z,3.80
2022-08-23T04:49:05.345Z,2.50
2022-08-23T04:51:33.736Z,3.70
2022-08-23T04:54:02.116Z,3.80
2022-08-23T04:56:30.503Z,1.93
2022-08-23T04:58:58.847Z,1.90
2022-08-23T05:01:27.423Z,1.50
2022-08-23T05:03:57.472Z,1.70
2022-08-23T05:06:26.045Z,1.53
2022-08-23T05:08:54.411Z,1.40
2022-08-23T05:11:22.809Z,1.60
2022-08-23T05:13:51.180Z,1.40
2022-08-23T05:16:19.576Z,1.10
2022-08-23T05:18:47.972Z,1.42
2022-08-23T05:21:18.563Z,1.30
2022-08-23T05:23:51.026Z,1.27
2022-08-23T05:26:23.399Z,1.48
2022-08-23T05:28:52.220Z,1.23
2022-08-23T05:31:21.639Z,1.50
2022-08-23T05:33:50.575Z,1.40
2022-08-23T05:36:21.526Z,1.40
2022-08-23T05:38:50.534Z,1.08
2022-08-23T05:41:20.905Z,1.35
2022-08-23T05:43:49.527Z,1.33
2022-08-23T05:46:19.850Z,1.48
2022-08-23T05:48:48.995Z,1.52
2022-08-23T05:51:18.289Z,1.77
2022-08-23T05:53:48.672Z,1.67
2022-08-23T05:56:19.382Z,1.30
2022-08-23T05:58:48.293Z,1.48
2022-08-23T06:01:16.879Z,1.33
2022-08-23T06:03:45.370Z,1.10
2022-08-23T06:06:14.817Z,1.30
2022-08-23T06:08:46.175Z,1.50
2022-08-23T06:11:18.012Z,1.45
2022-08-23T06:13:47.477Z,1.30
2022-08-23T06:16:16.716Z,1.70
2022-08-23T06:18:45.472Z,1.33
2022-08-23T06:21:15.184Z,1.23
2022-08-23T06:23:44.179Z,1.30
2022-08-23T06:26:13.921Z,1.30
2022-08-23T06:28:50.911Z,1.40
2022-08-23T06:31:40.844Z,1.38
2022-08-23T06:34:09.245Z,1.40
2022-08-23T06:36:38.188Z,1.20
2022-08-23T06:39:06.691Z,1.40
2022-08-23T06:41:35.069Z,1.10
2022-08-23T06:44:05.112Z,1.30
2022-08-23T06:46:34.086Z,1.10
2022-08-23T06:49:05.351Z,1.30
2022-08-23T06:51:35.381Z,1.55
2022-08-23T06:54:05.141Z,1.50
2022-08-23T06:56:33.553Z,1.27
2022-08-23T06:59:04.358Z,1.40
2022-08-23T07:01:45.559Z,1.60
2022-08-23T07:04:15.482Z,1.42
2022-08-23T07:06:43.989Z,1.30
2022-08-23T07:09:13.273Z,1.45
2022-08-23T07:11:41.741Z,1.65
2022-08-23T07:14:11.426Z,1.90
2022-08-23T07:16:43.383Z,1.42
2022-08-23T07:19:12.369Z,2.40
2022-08-23T07:21:41.085Z,2.65
2022-08-23T07:24:10.109Z,2.42
2022-08-23T07:26:39.261Z,1.90
2022-08-23T07:29:07.921Z,2.53
2022-08-23T07:31:37.807Z,2.22
2022-08-23T07:34:08.758Z,2.88
2022-08-23T07:36:37.714Z,3.00
2022-08-23T07:39:06.988Z,3.20
2022-08-23T07:41:35.751Z,2.60
2022-08-23T07:44:05.045Z,3.33
2022-08-23T07:46:34.305Z,2.85
2022-08-23T07:49:03.552Z,2.88
2022-08-23T07:51:34.314Z,3.35
2022-08-23T07:54:03.089Z,2.67
2022-08-23T07:56:31.485Z,3.05
2022-08-23T07:59:01.371Z,3.30
2022-08-23T08:01:30.545Z,2.78
2022-08-23T08:04:00.191Z,3.15
2022-08-23T08:06:30.547Z,2.47
2022-08-23T08:09:00.592Z,3.00
2022-08-23T08:11:33.895Z,2.10
2022-08-23T08:14:04.391Z,2.85
2022-08-23T08:16:33.872Z,2.78
2022-08-23T08:19:03.329Z,2.60
2022-08-23T08:21:31.751Z,2.70
2022-08-23T08:24:01.612Z,2.50
2022-08-23T08:26:30.057Z,3.42
2022-08-23T08:28:59.121Z,3.47
2022-08-23T08:31:27.948Z,4.18
2022-08-23T08:33:56.368Z,4.00
2022-08-23T08:36:36.145Z,4.40
2022-08-23T08:39:07.155Z,4.32
2022-08-23T08:41:48.490Z,5.07
2022-08-23T08:44:37.488Z,4.53
2022-08-23T08:47:09.083Z,5.38
2022-08-23T08:49:40.398Z,5.72
2022-08-23T08:52:13.249Z,4.55
2022-08-23T08:54:48.014Z,5.00
2022-08-23T08:57:18.102Z,5.50
2022-08-23T08:59:57.117Z,5.43
2022-08-23T09:02:32.587Z,5.47
2022-08-23T09:05:14.434Z,5.50
2022-08-23T09:07:48.485Z,6.28
2022-08-23T09:10:24.134Z,6.30
2022-08-23T09:12:56.080Z,6.15
2022-08-23T09:15:30.567Z,6.43
2022-08-23T09:18:01.019Z,7.40
2022-08-23T09:20:33.100Z,7.68
2022-08-23T09:23:09.185Z,7.43
2022-08-23T09:25:38.922Z,7.60
2022-08-23T09:28:07.509Z,7.57
2022-08-23T09:30:53.105Z,6.93
2022-08-23T09:33:22.986Z,5.88
2022-08-23T09:36:15.288Z,5.50
2022-08-23T09:38:52.827Z,5.65
2022-08-23T09:41:24.873Z,4.18
2022-08-23T09:43:54.051Z,4.20
2022-08-23T09:46:29.262Z,3.88
2022-08-23T09:48:58.936Z,4.20
2022-08-23T09:51:29.313Z,4.40
2022-08-23T09:54:06.751Z,3.63
2022-08-23T09:56:38.706Z,3.05
2022-08-23T09:59:22.370Z,2.72
2022-08-23T10:01:56.466Z,2.25
2022-08-23T10:04:26.062Z,1.90
2022-08-23T10:06:54.473Z,1.92
2022-08-23T10:09:27.612Z,2.13
2022-08-23T10:11:58.477Z,2.13
2022-08-23T10:14:30.069Z,2.45
2022-08-23T10:17:03.690Z,1.58
2022-08-23T10:19:36.382Z,2.08
2022-08-23T10:22:11.590Z,1.83
2022-08-23T10:24:43.647Z,1.50
2022-08-23T10:27:42.030Z,1.42
2022-08-23T10:30:13.227Z,1.40
2022-08-23T10:32:47.868Z,1.50
2022-08-23T10:35:25.560Z,1.38
2022-08-23T10:37:58.064Z,1.40
2022-08-23T10:40:29.624Z,1.27
2022-08-23T10:43:06.773Z,1.30
2022-08-23T10:45:37.587Z,1.30
2022-08-23T10:48:21.404Z,1.20
2022-08-23T10:50:55.475Z,1.35
2022-08-23T10:53:26.568Z,1.35
2022-08-23T10:56:07.928Z,1.20
2022-08-23T10:58:42.326Z,1.60
2022-08-23T11:01:14.336Z,1.50
2022-08-23T11:03:45.096Z,1.70
2022-08-23T11:06:40.812Z,1.60
2022-08-23T11:09:10.635Z,1.73
2022-08-23T11:11:46.846Z,1.45
2022-08-23T11:14:30.358Z,1.50
2022-08-23T11:17:00.532Z,1.60
2022-08-23T11:19:48.795Z,1.52
2022-08-23T11:22:18.364Z,1.55
2022-08-23T11:24:54.830Z,1.60
2022-08-23T11:27:31.728Z,1.60
2022-08-23T11:30:21.466Z,1.70
2022-08-23T11:32:50.517Z,1.25
2022-08-23T11:35:37.437Z,1.38
2022-08-23T11:38:11.921Z,1.70
2022-08-23T11:40:45.318Z,1.40
2022-08-23T11:43:15.266Z,1.20
2022-08-23T11:45:47.132Z,1.55
2022-08-23T11:48:18.544Z,1.33
2022-08-23T11:51:13.978Z,1.48
2022-08-23T11:53:56.781Z,1.80
2022-08-23T11:56:34.057Z,1.40
2022-08-23T11:59:15.197Z,1.65
2022-08-23T12:01:47.245Z,1.48
2022-08-23T12:04:28.950Z,1.40
2022-08-23T12:07:02.997Z,1.30
2022-08-23T12:09:49.852Z,1.40
2022-08-23T12:12:47.026Z,1.27
2022-08-23T12:15:18.469Z,1.20
2022-08-23T12:17:58.754Z,1.40
2022-08-23T12:20:32.318Z,1.48
2022-08-23T12:23:07.847Z,1.20
2022-08-23T12:25:37.350Z,1.80
2022-08-23T12:28:08.640Z,1.42
2022-08-23T12:30:42.902Z,1.65
2022-08-23T12:33:23.581Z,1.40
2022-08-23T12:35:58.679Z,1.67
2022-08-23T12:38:35.577Z,1.30
2022-08-23T12:41:15.278Z,1.30
2022-08-23T12:43:55.167Z,1.65
2022-08-23T12:46:30.924Z,1.27
2022-08-23T12:49:00.783Z,1.30
2022-08-23T12:51:29.259Z,1.00
2022-08-23T12:54:00.227Z,1.30
2022-08-23T12:56:32.214Z,1.30
2022-08-23T12:59:03.436Z,1.20
2022-08-23T13:01:33.112Z,1.15
2022-08-23T13:04:05.596Z,1.23
2022-08-23T13:06:35.490Z,1.20
2022-08-23T13:09:07.283Z,1.35
2022-08-23T13:11:36.694Z,1.30
2022-08-23T13:14:19.867Z,1.30
2022-08-23T13:16:48.240Z,1.42
2022-08-23T13:19:22.316Z,1.15
2022-08-23T13:21:54.483Z,1.40
2022-08-23T13:24:31.442Z,1.45
2022-08-23T13:27:15.021Z,1.10
2022-08-23T13:29:57.064Z,1.30
2022-08-23T13:32:27.210Z,1.90
2022-08-23T13:34:57.198Z,1.38
2022-08-23T13:37:28.276Z,1.38
2022-08-23T13:39:58.414Z,1.10
2022-08-23T13:42:28.283Z,1.40
2022-08-23T13:44:56.655Z,1.10
2022-08-23T13:47:26.291Z,1.48
2022-08-23T13:49:56.362Z,1.20
2022-08-23T13:53:11.531Z,1.17
2022-08-23T13:55:17.210Z,1.17
2022-08-23T13:57:45.859Z,1.20
2022-08-23T14:00:19.341Z,1.40
2022-08-23T14:02:49.141Z,1.40
2022-08-23T14:05:18.392Z,1.45
2022-08-23T14:07:48.633Z,1.30
2022-08-23T14:10:18.349Z,1.13
2022-08-23T14:12:48.240Z,1.40
2022-08-23T14:15:17.011Z,1.30
2022-08-23T14:17:46.678Z,1.40
2022-08-23T14:23:11.618Z,1.33
2022-08-23T14:25:41.054Z,1.35
2022-08-23T14:28:09.425Z,1.60
2022-08-23T14:30:38.314Z,1.33
2022-08-23T14:33:06.885Z,1.25
2022-08-23T14:35:35.438Z,1.52
2022-08-23T14:38:05.486Z,1.60
2022-08-23T14:40:34.073Z,1.17
2022-08-23T14:43:02.858Z,1.67
2022-08-23T14:45:32.428Z,1.30
2022-08-23T14:48:01.040Z,1.30
2022-08-23T14:50:29.553Z,1.23
2022-08-23T14:52:58.088Z,1.17
2022-08-23T14:55:28.390Z,1.30
2022-08-23T14:57:56.923Z,1.60
2022-08-23T15:00:25.704Z,1.50
2022-08-23T15:02:54.408Z,1.10
2022-08-23T15:05:22.800Z,1.27
2022-08-23T15:07:51.392Z,1.25
2022-08-23T15:13:27.138Z,1.30
2022-08-23T15:15:58.421Z,1.20
2022-08-23T15:18:27.006Z,1.30
2022-08-23T15:20:56.614Z,1.40
2022-08-23T15:23:25.161Z,1.60
2022-08-23T15:25:53.593Z,1.20
2022-08-23T15:28:24.712Z,1.50
2022-08-23T15:30:53.421Z,1.45
2022-08-23T15:33:27.090Z,1.60
2022-08-23T15:36:01.834Z,1.52
2022-08-23T15:38:32.324Z,1.20
2022-08-23T15:41:00.738Z,1.30
2022-08-23T15:43:34.093Z,1.48
2022-08-23T15:46:05.689Z,1.08
2022-08-23T15:48:36.025Z,1.20
2022-08-23T15:51:06.045Z,1.30
2022-08-23T15:53:34.421Z,1.10
2022-08-23T15:56:05.809Z,1.30
2022-08-23T15:58:35.740Z,1.27
2022-08-23T16:01:07.956Z,0.93
2022-08-23T16:03:36.831Z,1.15
2022-08-23T16:06:05.392Z,1.20
2022-08-23T16:08:34.820Z,1.15
2022-08-23T16:11:05.092Z,1.33
2022-08-23T16:13:33.591Z,1.10
2022-08-23T16:16:04.307Z,1.10
2022-08-23T16:18:32.700Z,1.15
2022-08-23T16:21:01.090Z,1.10
2022-08-23T16:23:29.616Z,1.27
2022-08-23T16:26:01.210Z,1.15
2022-08-23T16:28:29.869Z,1.40
2022-08-23T16:30:58.281Z,1.40
2022-08-23T16:33:28.132Z,1.20
2022-08-23T16:35:56.479Z,1.60
2022-08-23T16:38:24.805Z,1.40
2022-08-23T16:40:53.166Z,1.40
2022-08-23T16:43:22.135Z,1.45
2022-08-23T16:45:50.672Z,1.30
2022-08-23T16:48:19.350Z,1.60
2022-08-23T16:50:49.935Z,1.23
2022-08-23T16:53:18.434Z,1.50
2022-08-23T16:55:46.825Z,1.30
2022-08-23T16:58:15.174Z,1.65
2022-08-23T17:00:43.743Z,1.48
2022-08-23T17:03:12.204Z,1.50
2022-08-23T17:05:41.113Z,1.25
2022-08-23T17:08:10.919Z,1.45
2022-08-23T17:10:39.269Z,1.35
2022-08-23T17:13:07.636Z,1.10
2022-08-23T17:15:36.996Z,1.30
2022-08-23T17:18:05.575Z,1.63
2022-08-23T17:20:36.191Z,1.30
2022-08-23T17:23:05.585Z,1.23
2022-08-23T17:25:36.260Z,1.00
2022-08-23T17:28:04.804Z,1.48
2022-08-23T17:30:34.358Z,1.20
2022-08-23T17:33:02.862Z,1.45
2022-08-23T17:35:33.918Z,1.13
2022-08-23T17:38:02.923Z,1.17
2022-08-23T17:40:32.411Z,1.35
2022-08-23T17:43:03.300Z,1.40
2022-08-23T17:45:33.825Z,1.55
2022-08-23T17:48:02.248Z,1.42
2022-08-23T17:50:30.618Z,1.38
2022-08-23T17:52:59.048Z,1.50
2022-08-23T17:55:30.040Z,1.40
2022-08-23T17:58:03.895Z,1.50
2022-08-23T18:00:34.351Z,1.30
2022-08-23T18:03:02.988Z,1.30
2022-08-23T18:05:33.151Z,1.38
2022-08-23T18:08:01.600Z,1.60
2022-08-23T18:10:30.967Z,1.30
2022-08-23T18:12:59.442Z,1.27
2022-08-23T18:15:28.755Z,1.33
2022-08-23T18:17:58.837Z,1.15
2022-08-23T18:20:27.845Z,1.30
2022-08-23T18:22:56.443Z,1.30
2022-08-23T18:25:24.859Z,1.25
2022-08-23T18:28:08.423Z,1.33
2022-08-23T18:30:37.433Z,1.52
2022-08-23T18:33:07.870Z,1.48
2022-08-23T18:35:41.091Z,1.80
2022-08-23T18:38:09.487Z,1.83
2022-08-23T18:40:45.300Z,1.85
2022-08-23T18:43:14.390Z,1.60
2022-08-23T18:45:42.836Z,1.60
2022-08-23T18:48:13.242Z,1.60
2022-08-23T18:50:42.425Z,1.48
2022-08-23T18:53:12.500Z,1.30
2022-08-23T18:55:42.118Z,1.20
2022-08-23T18:58:10.552Z,1.40
2022-08-23T19:00:39.699Z,3.20
2022-08-23T19:03:08.495Z,5.63
2022-08-23T19:05:42.333Z,3.42
2022-08-23T19:08:11.747Z,3.78
2022-08-23T19:10:40.503Z,2.60
2022-08-23T19:13:09.622Z,3.45
2022-08-23T19:15:40.609Z,2.63
2022-08-23T19:18:09.081Z,2.10
2022-08-23T19:20:38.838Z,1.50
2022-08-23T19:23:08.714Z,1.60
2022-08-23T19:25:38.479Z,1.70
2022-08-23T19:28:07.414Z,1.77
2022-08-23T19:30:35.880Z,1.65
2022-08-23T19:33:04.778Z,1.48
2022-08-23T19:35:33.372Z,1.75
2022-08-23T19:38:01.728Z,1.90
2022-08-23T19:40:31.654Z,1.50
2022-08-23T19:43:00.465Z,1.23
2022-08-23T19:45:31.992Z,1.60
2022-08-23T19:48:00.919Z,1.50
2022-08-23T19:50:29.636Z,1.83
2022-08-23T19:52:58.030Z,1.75
2022-08-23T19:55:27.447Z,1.70
2022-08-23T19:57:58.219Z,1.38
2022-08-23T20:00:27.105Z,1.38
2022-08-23T20:02:55.545Z,1.20
2022-08-23T20:05:24.023Z,1.88
2022-08-23T20:07:52.537Z,1.10
2022-08-23T20:10:21.469Z,1.52
2022-08-23T20:12:49.845Z,1.70
2022-08-23T20:15:19.816Z,4.85
2022-08-23T20:17:48.160Z,4.57
2022-08-23T20:20:16.506Z,2.00
2022-08-23T20:23:02.411Z,1.70
2022-08-23T20:25:31.428Z,1.70
2022-08-23T20:27:59.821Z,1.20
2022-08-23T20:30:29.562Z,1.35
2022-08-23T20:32:57.941Z,1.45
2022-08-23T20:35:26.328Z,1.30
2022-08-23T20:37:54.757Z,1.67
2022-08-23T20:40:25.899Z,1.17
2022-08-23T20:42:54.380Z,1.38
2022-08-23T20:45:23.035Z,1.70
2022-08-23T20:47:52.926Z,1.38
2022-08-23T20:50:21.405Z,1.42
2022-08-23T20:52:49.764Z,1.58
2022-08-23T20:55:18.659Z,1.40
2022-08-23T20:57:47.029Z,1.30
2022-08-23T21:00:15.831Z,1.15
2022-08-23T21:02:44.249Z,1.27
2022-08-23T21:05:14.052Z,1.48
2022-08-23T21:07:42.719Z,1.60
2022-08-23T21:10:11.817Z,1.30
2022-08-23T21:12:40.571Z,1.30
2022-08-23T21:15:11.041Z,1.40
2022-08-23T21:17:39.590Z,1.40
2022-08-23T21:20:08.390Z,1.40
2022-08-23T21:22:38.165Z,1.10
2022-08-23T21:25:06.955Z,1.98
2022-08-23T21:27:35.689Z,1.40
2022-08-23T21:33:36.642Z,1.30
2022-08-23T21:36:08.012Z,1.42
2022-08-23T21:38:38.300Z,1.48
2022-08-23T21:41:08.942Z,1.45
2022-08-23T21:43:38.751Z,1.25
2022-08-23T21:46:08.152Z,1.33
2022-08-23T21:48:36.650Z,1.42
2022-08-23T21:51:05.032Z,1.42
2022-08-23T21:53:33.483Z,1.40
2022-08-23T21:56:03.352Z,1.42
2022-08-23T21:58:31.832Z,1.13
2022-08-23T22:01:00.869Z,1.20
2022-08-23T22:03:29.632Z,1.30
2022-08-23T22:05:58.115Z,1.40
2022-08-23T22:08:26.737Z,1.00
2022-08-23T22:10:57.919Z,1.20
2022-08-23T22:13:28.694Z,0.98
2022-08-23T22:15:57.366Z,1.33
2022-08-23T22:18:25.874Z,1.40
2022-08-23T22:20:55.084Z,1.20
2022-08-23T22:23:23.542Z,1.40
2022-08-23T22:25:51.987Z,1.10
2022-08-23T22:28:20.430Z,1.20
2022-08-23T22:30:50.230Z,1.20
2022-08-23T22:33:18.769Z,1.27
2022-08-23T22:35:48.936Z,1.30
2022-08-23T22:38:18.083Z,1.20
2022-08-23T22:40:49.756Z,1.30
2022-08-23T22:43:18.575Z,1.20
2022-08-23T22:45:52.297Z,1.20
2022-08-23T22:48:21.551Z,1.25
2022-08-23T22:50:50.141Z,1.10
2022-08-23T22:53:19.768Z,1.00
2022-08-23T22:55:51.655Z,1.05
2022-08-23T22:58:20.153Z,1.20
2022-08-23T23:00:48.673Z,1.10
2022-08-23T23:03:18.645Z,1.10
2022-08-23T23:05:47.072Z,1.00
2022-08-23T23:08:30.597Z,1.20
2022-08-23T23:11:00.012Z,1.55
2022-08-23T23:13:31.539Z,1.15
2022-08-23T23:16:00.945Z,1.00
2022-08-23T23:18:31.116Z,1.17
2022-08-23T23:20:59.609Z,1.00
2022-08-23T23:23:28.385Z,1.30
2022-08-23T23:25:57.216Z,1.27
2022-08-23T23:28:25.817Z,1.30
2022-08-23T23:30:55.363Z,1.13
2022-08-23T23:33:23.933Z,1.02
2022-08-23T23:35:53.771Z,1.17
2022-08-23T23:38:22.362Z,1.10
2022-08-23T23:40:50.886Z,1.00
2022-08-23T23:43:19.302Z,1.08
2022-08-23T23:45:47.843Z,1.10
2022-08-23T23:48:16.473Z,1.20
2022-08-23T23:50:46.422Z,1.13
2022-08-23T23:53:17.044Z,1.08
2022-08-23T23:55:45.642Z,1.38
2022-08-23T23:58:14.102Z,1.10
